MET'MAP v2.0
soon released !

Expected late october,
this new version will be
more efficient, smarter,
and hosted on a brand new
server x3 powerfull...
...and still free !


Not compatible ?
Try the mobile version !

LOG IN : | Subscribe | Disclaimer | Who is Orbifly ? |
ICAO code :

TAF - LRTM Transilvania Târgu Mureş Int. - 02 Jun 2020 08:28 UTC - Data Source NOAA   


- Airport Elevation : 963 ft
- IATA code : TGM
- No reported NOTAMs.


LRTM - Transilvania Târgu Mureş Int.

Latest METAR recorded : 2015/08/11 08:00 LRTM 110800Z 24003KT 210V310 9999 FEW012 26/13 Q1016
TAF TAF LRTM
Valid from the 02 at 06:00 until the 02 at 15:00 UTC


020500Z 0206/0215 32006KT 9999 SCT040
PROB40
TEMPO 0209/0214 5000 -SHRA SCT015 SCT030CB

Source NOAA


MET'MAP, your aeronautical weather chart ! - Copyright ORBIFLY December 2007

Programming & Development : Alexandra Zaïnal
Co-Developer : Marc-Olivier Méhu
Technical & hardware support : Manuel Goepfert
Concept & Financing : Baudouin d'Aumeries